Time;durP1;ratioP1;P1;durP2;ratioP2;P2;SDS_P1;SDS_P2;PMS_P1;PMS_P2;Temp;Humidity;BMP_temperature;BMP_pressure;BME280_temperature;BME280_humidity;BME280_pressure;Samples;Min_cycle;Max_cycle;Signal;HPM_P1;HPM_P2
2021/01/04 00:04:25;;;;;;;64.18;26.92;;;;;;;;;;8104429;28;20529;-76
2021/01/04 00:09:20;;;;;;;78.32;31.30;;;;;;;;;;8102426;28;20516;-76
2021/01/04 00:13:59;;;;;;;76.38;30.98;;;;;;;;;;8104677;28;20681;-75
2021/01/04 00:18:43;;;;;;;78.03;30.38;;;;;;;;;;8088959;28;20658;-76
2021/01/04 00:23:27;;;;;;;78.97;32.83;;;;;;;;;;8104382;28;20474;-75
2021/01/04 00:28:04;;;;;;;76.90;28.48;;;;;;;;;;8102565;28;20055;-76
2021/01/04 00:32:23;;;;;;;77.78;29.88;;;;;;;;;;8102268;28;20047;-75
2021/01/04 00:36:35;;;;;;;80.07;32.17;;;;;;;;;;8101856;28;20496;-75
2021/01/04 00:41:08;;;;;;;67.85;27.88;;;;;;;;;;8103172;28;20481;-75
2021/01/04 00:45:26;;;;;;;56.58;25.65;;;;;;;;;;8103390;28;20482;-74
2021/01/04 00:49:33;;;;;;;63.47;27.67;;;;;;;;;;8103392;28;20406;-75
2021/01/04 00:53:43;;;;;;;60.20;26.67;;;;;;;;;;8117078;28;20466;-74
2021/01/04 00:58:21;;;;;;;66.95;28.00;;;;;;;;;;8102670;28;20470;-74
2021/01/04 01:03:05;;;;;;;67.45;27.60;;;;;;;;;;8102857;28;20527;-74
2021/01/04 01:07:16;;;;;;;57.28;25.48;;;;;;;;;;8103947;28;20681;-74
2021/01/04 01:11:58;;;;;;;58.70;23.90;;;;;;;;;;8102004;28;20381;-75
2021/01/04 01:16:38;;;;;;;51.92;24.08;;;;;;;;;;8102542;28;20511;-75
2021/01/04 01:20:49;;;;;;;61.92;24.52;;;;;;;;;;8103380;28;20478;-74
2021/01/04 01:24:52;;;;;;;57.78;26.70;;;;;;;;;;8103379;28;20082;-74
2021/01/04 01:29:32;;;;;;;64.95;28.42;;;;;;;;;;8102278;28;20421;-74
2021/01/04 01:33:38;;;;;;;73.93;36.42;;;;;;;;;;8114872;28;20566;-74
2021/01/04 01:38:07;;;;;;;54.80;26.63;;;;;;;;;;8102321;28;20469;-74
2021/01/04 01:42:35;;;;;;;60.40;25.35;;;;;;;;;;8101360;28;20373;-74
2021/01/04 01:46:59;;;;;;;61.85;26.33;;;;;;;;;;8103461;28;20763;-74
2021/01/04 01:51:26;;;;;;;62.65;25.08;;;;;;;;;;8108702;28;20574;-74
2021/01/04 01:55:38;;;;;;;53.58;22.75;;;;;;;;;;8108430;28;20498;-74
2021/01/04 02:00:12;;;;;;;57.40;22.63;;;;;;;;;;8108342;28;20526;-74
2021/01/04 02:04:47;;;;;;;55.67;22.80;;;;;;;;;;8108293;28;20470;-74
2021/01/04 02:09:10;;;;;;;48.85;21.90;;;;;;;;;;8122039;28;20397;-74
2021/01/04 02:13:38;;;;;;;48.60;21.48;;;;;;;;;;8107123;28;20363;-74
2021/01/04 02:18:29;;;;;;;48.72;22.80;;;;;;;;;;8106994;28;20382;-74
2021/01/04 02:23:10;;;;;;;53.10;24.23;;;;;;;;;;8106885;28;20363;-74
2021/01/04 02:27:21;;;;;;;98.70;41.97;;;;;;;;;;8105443;28;20373;-74
2021/01/04 02:31:24;;;;;;;90.70;39.95;;;;;;;;;;8105583;28;20689;-74
2021/01/04 02:35:28;;;;;;;76.65;30.83;;;;;;;;;;8090680;28;20377;-73
2021/01/04 02:40:00;;;;;;;56.45;24.15;;;;;;;;;;8107647;28;20513;-74
2021/01/04 02:44:04;;;;;;;71.28;28.48;;;;;;;;;;8119488;28;20381;-74
2021/01/04 02:48:34;;;;;;;59.95;27.13;;;;;;;;;;8106598;28;20373;-74
2021/01/04 02:52:47;;;;;;;106.20;43.45;;;;;;;;;;8120008;28;20527;-75
2021/01/04 02:57:34;;;;;;;100.72;42.08;;;;;;;;;;8107669;28;20362;-75
2021/01/04 03:02:18;;;;;;;70.57;30.77;;;;;;;;;;8104951;28;20458;-75
2021/01/04 03:06:43;;;;;;;71.32;27.80;;;;;;;;;;8106535;28;20544;-75
2021/01/04 03:10:47;;;;;;;56.15;25.15;;;;;;;;;;8105394;28;20512;-75
2021/01/04 03:15:16;;;;;;;54.97;23.30;;;;;;;;;;8107163;28;20665;-75
2021/01/04 03:19:24;;;;;;;50.28;22.10;;;;;;;;;;8106009;28;20640;-75
2021/01/04 03:23:30;;;;;;;44.60;21.02;;;;;;;;;;8104501;28;20631;-74
2021/01/04 03:27:33;;;;;;;42.28;21.50;;;;;;;;;;8105292;28;20508;-75
2021/01/04 03:31:36;;;;;;;55.85;22.80;;;;;;;;;;8105606;28;20390;-74
2021/01/04 03:35:39;;;;;;;57.45;24.08;;;;;;;;;;8105348;28;20483;-74
2021/01/04 03:39:42;;;;;;;48.58;23.48;;;;;;;;;;8104752;28;20058;-74
2021/01/04 03:43:46;;;;;;;56.47;23.60;;;;;;;;;;8104526;28;20666;-75
2021/01/04 03:47:49;;;;;;;55.42;24.08;;;;;;;;;;8105497;28;20652;-74
2021/01/04 03:52:00;;;;;;;61.65;25.83;;;;;;;;;;8086814;28;20474;-74
2021/01/04 03:56:03;;;;;;;56.22;24.77;;;;;;;;;;8119349;28;20554;-74
2021/01/04 04:00:09;;;;;;;50.95;22.88;;;;;;;;;;8105244;28;20051;-74
2021/01/04 04:04:15;;;;;;;;;;;;;;;;;;8103422;28;20378;-73
2021/01/04 04:08:18;;;;;;;58.17;23.25;;;;;;;;;;8102080;28;20246;-74
2021/01/04 04:12:21;;;;;;;48.28;23.50;;;;;;;;;;8104820;28;20483;-73
2021/01/04 04:16:25;;;;;;;55.97;22.50;;;;;;;;;;8105259;28;20381;-73
2021/01/04 04:20:28;;;;;;;58.58;24.05;;;;;;;;;;8104255;28;20394;-73
2021/01/04 04:24:31;;;;;;;52.80;22.88;;;;;;;;;;8104515;28;20480;-73
2021/01/04 04:28:35;;;;;;;46.28;20.15;;;;;;;;;;8103394;28;20466;-73
2021/01/04 04:32:38;;;;;;;55.65;22.35;;;;;;;;;;8103769;28;20382;-73
2021/01/04 04:36:44;;;;;;;57.97;23.40;;;;;;;;;;8102726;28;20069;-73
2021/01/04 04:40:50;;;;;;;60.42;25.52;;;;;;;;;;8102568;28;20477;-73
2021/01/04 04:45:03;;;;;;;57.97;21.95;;;;;;;;;;8101834;28;20089;-74
2021/01/04 04:49:36;;;;;;;49.50;21.25;;;;;;;;;;8102646;28;20428;-74
2021/01/04 04:53:48;;;;;;;51.10;22.63;;;;;;;;;;8101943;28;20082;-73
2021/01/04 04:58:22;;;;;;;53.55;22.33;;;;;;;;;;8103420;28;20502;-74
2021/01/04 05:02:36;;;;;;;51.30;22.20;;;;;;;;;;8071438;28;20429;-74
2021/01/04 05:07:05;;;;;;;57.45;22.48;;;;;;;;;;8111920;28;20482;-72
2021/01/04 05:11:10;;;;;;;61.42;25.65;;;;;;;;;;8139788;28;20058;-73
2021/01/04 05:15:28;;;;;;;93.28;31.88;;;;;;;;;;8131681;28;20481;-73
2021/01/04 05:20:11;;;;;;;87.97;32.17;;;;;;;;;;8132114;28;20519;-73
2021/01/04 05:24:51;;;;;;;84.63;29.65;;;;;;;;;;8136098;28;20401;-72
2021/01/04 05:29:21;;;;;;;66.72;27.50;;;;;;;;;;8141092;28;20481;-73
2021/01/04 05:33:30;;;;;;;51.78;21.52;;;;;;;;;;8139846;28;20670;-77
2021/01/04 05:37:55;;;;;;;44.92;20.40;;;;;;;;;;8138706;28;20058;-74
2021/01/04 05:41:58;;;;;;;48.38;21.27;;;;;;;;;;8139191;28;20658;-74
2021/01/04 05:46:30;;;;;;;45.13;20.08;;;;;;;;;;8140199;28;20489;-74
2021/01/04 05:51:08;;;;;;;45.85;19.58;;;;;;;;;;8139197;28;20511;-74
2021/01/04 05:55:16;;;;;;;42.03;20.37;;;;;;;;;;8141770;28;20170;-73
2021/01/04 05:59:19;;;;;;;49.95;20.38;;;;;;;;;;8140347;28;20554;-74
2021/01/04 06:03:23;;;;;;;39.20;18.58;;;;;;;;;;8141997;28;20413;-73
2021/01/04 06:07:25;;;;;;;42.15;18.60;;;;;;;;;;8138858;28;20386;-74
2021/01/04 06:11:29;;;;;;;48.22;20.80;;;;;;;;;;8137526;28;20393;-74
2021/01/04 06:15:38;;;;;;;51.53;22.73;;;;;;;;;;8137783;28;20515;-73
2021/01/04 06:19:43;;;;;;;52.88;21.02;;;;;;;;;;8139188;28;20362;-74
2021/01/04 06:23:46;;;;;;;55.53;24.70;;;;;;;;;;8137785;28;20470;-74
2021/01/04 06:27:49;;;;;;;53.97;27.38;;;;;;;;;;8139677;28;20462;-73
2021/01/04 06:31:54;;;;;;;36.20;15.85;;;;;;;;;;8139825;28;20440;-74
2021/01/04 06:36:13;;;;;;;36.63;17.60;;;;;;;;;;8136269;28;20485;-73
2021/01/04 06:40:31;;;;;;;50.78;20.60;;;;;;;;;;8138992;28;20089;-73
2021/01/04 06:44:34;;;;;;;39.30;18.20;;;;;;;;;;8087825;28;20488;-73
2021/01/04 06:48:55;;;;;;;41.50;16.85;;;;;;;;;;8053590;28;20235;-74
2021/01/04 06:53:40;;;;;;;48.33;19.05;;;;;;;;;;8131997;28;20481;-73
2021/01/04 06:58:03;;;;;;;61.05;23.10;;;;;;;;;;8071307;28;20786;-73
2021/01/04 07:02:41;;;;;;;53.03;21.92;;;;;;;;;;8135917;28;20462;-74
2021/01/04 07:07:37;;;;;;;47.45;22.15;;;;;;;;;;8137994;28;20619;-73
2021/01/04 07:11:48;;;;;;;55.90;22.35;;;;;;;;;;8107721;28;20554;-73
2021/01/04 07:16:18;;;;;;;47.33;21.02;;;;;;;;;;8138567;28;20394;-73
2021/01/04 07:21:08;;;;;;;53.53;21.85;;;;;;;;;;8088165;28;20536;-73
2021/01/04 07:25:47;;;;;;;50.47;21.08;;;;;;;;;;8154741;28;20440;-73
2021/01/04 07:30:14;;;;;;;42.67;18.17;;;;;;;;;;8137262;28;20381;-73
2021/01/04 07:34:30;;;;;;;43.78;18.23;;;;;;;;;;8137132;28;20428;-74
2021/01/04 07:38:58;;;;;;;45.33;18.08;;;;;;;;;;8135559;28;20514;-74
2021/01/04 07:43:28;;;;;;;40.90;17.13;;;;;;;;;;8136142;28;20477;-73
2021/01/04 07:48:11;;;;;;;34.10;15.52;;;;;;;;;;8136466;28;20042;-74
2021/01/04 07:52:39;;;;;;;32.78;15.05;;;;;;;;;;8137267;28;20604;-74
2021/01/04 07:57:19;;;;;;;38.03;17.88;;;;;;;;;;8135442;28;20528;-74
2021/01/04 08:02:03;;;;;;;36.67;16.73;;;;;;;;;;8133667;28;20562;-74
2021/01/04 08:07:00;;;;;;;42.42;18.73;;;;;;;;;;8136182;28;20054;-74
2021/01/04 08:11:21;;;;;;;33.95;17.17;;;;;;;;;;8144863;28;20414;-74
2021/01/04 08:15:57;;;;;;;36.85;17.48;;;;;;;;;;8135754;28;20489;-74
2021/01/04 08:20:02;;;;;;;35.40;17.85;;;;;;;;;;8112359;28;20050;-74
2021/01/04 08:24:20;;;;;;;50.42;21.23;;;;;;;;;;8136397;28;20092;-74
2021/01/04 08:28:45;;;;;;;424.40;195.47;;;;;;;;;;8134907;28;20597;-74
2021/01/04 08:33:03;;;;;;;380.27;117.00;;;;;;;;;;8134943;28;20653;-74
2021/01/04 08:37:08;;;;;;;246.90;88.15;;;;;;;;;;8021989;28;20638;-74
2021/01/04 08:41:20;;;;;;;378.90;95.93;;;;;;;;;;8133815;28;20480;-74
2021/01/04 08:45:35;;;;;;;132.18;48.47;;;;;;;;;;8060212;28;20369;-74
2021/01/04 08:50:32;;;;;;;434.27;101.00;;;;;;;;;;8086990;28;20223;-74
2021/01/04 08:54:35;;;;;;;156.18;47.45;;;;;;;;;;8136212;28;20046;-75
2021/01/04 08:58:45;;;;;;;213.40;48.22;;;;;;;;;;8137244;28;20444;-75
2021/01/04 09:02:50;;;;;;;38.30;17.80;;;;;;;;;;8139448;28;20054;-75
2021/01/04 09:07:19;;;;;;;170.68;39.42;;;;;;;;;;8110206;28;20655;-75
2021/01/04 09:11:22;;;;;;;250.73;61.55;;;;;;;;;;8135834;28;20628;-75
2021/01/04 09:15:32;;;;;;;250.60;63.78;;;;;;;;;;8134957;28;20368;-75
2021/01/04 09:19:38;;;;;;;;;;;;;;;;;;8137812;28;20382;-75
2021/01/04 09:23:42;;;;;;;288.48;78.15;;;;;;;;;;8135671;28;20410;-75
2021/01/04 09:27:49;;;;;;;233.10;69.95;;;;;;;;;;8145843;28;20481;-75
2021/01/04 09:32:11;;;;;;;374.52;119.85;;;;;;;;;;8135578;28;20428;-75
2021/01/04 09:36:15;;;;;;;104.15;41.05;;;;;;;;;;8134680;28;20518;-75
2021/01/04 09:40:22;;;;;;;271.17;92.18;;;;;;;;;;8130152;28;20433;-75
2021/01/04 09:44:25;;;;;;;76.82;34.53;;;;;;;;;;8103142;28;20358;-75
2021/01/04 09:48:34;;;;;;;54.22;24.02;;;;;;;;;;8100456;28;20535;-75
2021/01/04 09:52:47;;;;;;;48.85;22.42;;;;;;;;;;8108475;28;20474;-76
2021/01/04 09:56:51;;;;;;;59.10;26.05;;;;;;;;;;8120574;28;20512;-75
2021/01/04 10:01:11;;;;;;;55.55;24.50;;;;;;;;;;8107660;28;20449;-76
2021/01/04 10:05:16;;;;;;;48.38;22.98;;;;;;;;;;8105829;28;20050;-76
2021/01/04 10:09:19;;;;;;;45.05;22.73;;;;;;;;;;8121334;28;20532;-75
2021/01/04 10:13:24;;;;;;;41.63;21.08;;;;;;;;;;8107684;28;20050;-76
2021/01/04 10:18:21;;;;;;;32.60;17.25;;;;;;;;;;8108301;28;20177;-75
2021/01/04 10:22:34;;;;;;;29.17;15.48;;;;;;;;;;8102075;28;20480;-75
2021/01/04 10:26:46;;;;;;;28.30;15.32;;;;;;;;;;8042815;28;20070;-76
2021/01/04 10:30:49;;;;;;;45.00;24.40;;;;;;;;;;8121863;28;20623;-76
2021/01/04 10:34:53;;;;;;;27.80;13.68;;;;;;;;;;8107738;28;20398;-77
2021/01/04 10:39:06;;;;;;;32.78;17.80;;;;;;;;;;8107113;28;20640;-75
2021/01/04 10:43:10;;;;;;;30.80;16.38;;;;;;;;;;8039745;29;20407;-75
2021/01/04 10:47:27;;;;;;;49.67;25.25;;;;;;;;;;8053799;29;20364;-75
2021/01/04 10:51:32;;;;;;;53.10;29.75;;;;;;;;;;8053855;29;20403;-76
2021/01/04 10:55:56;;;;;;;38.85;20.23;;;;;;;;;;8054329;29;20055;-74
2021/01/04 11:00:17;;;;;;;40.83;21.02;;;;;;;;;;8057507;29;20081;-75
2021/01/04 11:04:21;;;;;;;39.80;19.20;;;;;;;;;;8054135;29;20505;-74
2021/01/04 11:08:24;;;;;;;47.53;24.55;;;;;;;;;;8069507;29;20051;-74
2021/01/04 11:12:27;;;;;;;35.35;16.95;;;;;;;;;;8078266;28;20398;-74
2021/01/04 11:17:01;;;;;;;35.30;18.33;;;;;;;;;;8105956;28;20051;-75
2021/01/04 11:21:05;;;;;;;35.25;16.45;;;;;;;;;;8104786;28;20496;-75
2021/01/04 11:25:12;;;;;;;27.38;14.13;;;;;;;;;;8104864;28;20110;-75
2021/01/04 11:29:15;;;;;;;34.35;15.00;;;;;;;;;;8106356;28;20050;-75
2021/01/04 11:33:23;;;;;;;33.17;14.93;;;;;;;;;;8105288;28;20073;-75
2021/01/04 11:37:27;;;;;;;31.33;15.52;;;;;;;;;;8105106;28;20542;-75
2021/01/04 11:41:30;;;;;;;27.45;14.07;;;;;;;;;;8104521;28;20386;-75
2021/01/04 11:45:33;;;;;;;30.23;14.10;;;;;;;;;;8104654;28;20351;-75
2021/01/04 11:49:37;;;;;;;26.33;12.82;;;;;;;;;;8106793;28;20470;-75
2021/01/04 11:53:40;;;;;;;31.25;13.73;;;;;;;;;;8105283;28;20458;-75
2021/01/04 11:57:43;;;;;;;25.38;12.65;;;;;;;;;;8103749;28;20757;-75
2021/01/04 12:01:46;;;;;;;18.83;9.55;;;;;;;;;;8110908;28;20050;-75
2021/01/04 12:05:49;;;;;;;24.80;11.57;;;;;;;;;;8055078;28;20398;-75
2021/01/04 12:09:52;;;;;;;25.38;10.50;;;;;;;;;;8104153;28;20379;-76
2021/01/04 12:13:59;;;;;;;20.35;10.40;;;;;;;;;;8105348;28;20422;-75
2021/01/04 12:18:02;;;;;;;29.25;11.55;;;;;;;;;;8102393;28;20043;-75
2021/01/04 12:22:10;;;;;;;25.17;12.13;;;;;;;;;;8105754;28;20527;-75
2021/01/04 12:26:14;;;;;;;25.75;12.05;;;;;;;;;;8102323;28;20374;-75
2021/01/04 12:30:18;;;;;;;20.70;11.38;;;;;;;;;;8101936;28;20673;-75
2021/01/04 12:34:22;;;;;;;34.25;17.00;;;;;;;;;;8085585;28;20506;-75
2021/01/04 12:38:26;;;;;;;193.57;98.63;;;;;;;;;;8103684;28;20070;-75
2021/01/04 12:42:29;;;;;;;48.53;25.45;;;;;;;;;;8103200;28;20132;-74
2021/01/04 12:46:32;;;;;;;28.98;14.18;;;;;;;;;;8104608;28;20070;-75
2021/01/04 12:50:39;;;;;;;32.38;19.35;;;;;;;;;;8103213;28;20382;-74
2021/01/04 12:54:44;;;;;;;21.83;11.40;;;;;;;;;;8102235;28;20077;-75
2021/01/04 12:58:48;;;;;;;22.75;11.48;;;;;;;;;;8104012;28;20574;-75
2021/01/04 13:02:53;;;;;;;25.80;13.80;;;;;;;;;;8103575;28;20070;-75
2021/01/04 13:06:56;;;;;;;27.85;13.18;;;;;;;;;;8102717;28;20536;-75
2021/01/04 13:11:01;;;;;;;41.28;21.58;;;;;;;;;;8103512;28;20478;-76
2021/01/04 13:15:08;;;;;;;77.60;39.05;;;;;;;;;;8103277;28;20478;-75
2021/01/04 13:19:13;;;;;;;98.30;48.92;;;;;;;;;;8101254;28;20047;-75
2021/01/04 13:23:19;;;;;;;34.67;18.35;;;;;;;;;;8104404;28;20547;-76
2021/01/04 13:27:22;;;;;;;37.72;19.10;;;;;;;;;;8100698;28;20074;-74
2021/01/04 13:31:28;;;;;;;30.65;15.93;;;;;;;;;;8100911;28;20635;-75
2021/01/04 13:35:31;;;;;;;29.27;14.82;;;;;;;;;;8103517;28;20547;-76
2021/01/04 13:39:34;;;;;;;29.48;16.65;;;;;;;;;;8103065;28;20478;-75
2021/01/04 13:43:37;;;;;;;34.28;17.48;;;;;;;;;;8100069;28;20351;-75
2021/01/04 13:47:42;;;;;;;36.17;19.35;;;;;;;;;;8063880;28;20062;-75
2021/01/04 13:51:49;;;;;;;34.88;18.92;;;;;;;;;;8110414;28;20641;-75
2021/01/04 13:55:52;;;;;;;38.40;18.33;;;;;;;;;;8088505;28;20470;-74
2021/01/04 13:59:56;;;;;;;52.03;22.35;;;;;;;;;;8108613;28;20403;-75
2021/01/04 14:03:59;;;;;;;94.32;39.15;;;;;;;;;;8107528;28;20470;-75
2021/01/04 14:08:03;;;;;;;51.30;21.83;;;;;;;;;;8108092;28;20051;-75
2021/01/04 14:12:06;;;;;;;37.50;16.10;;;;;;;;;;8106872;28;20043;-74
2021/01/04 14:16:09;;;;;;;50.10;24.35;;;;;;;;;;8108833;28;20051;-75
2021/01/04 14:20:13;;;;;;;54.25;23.45;;;;;;;;;;8107367;28;20478;-74
2021/01/04 14:24:16;;;;;;;32.45;17.73;;;;;;;;;;8107895;28;20459;-74
2021/01/04 14:28:20;;;;;;;39.22;18.92;;;;;;;;;;8088696;28;20077;-75
2021/01/04 14:32:26;;;;;;;51.08;23.55;;;;;;;;;;8107187;28;20382;-74
2021/01/04 14:36:29;;;;;;;59.42;30.00;;;;;;;;;;8106566;28;20419;-74
2021/01/04 14:40:32;;;;;;;71.97;30.42;;;;;;;;;;8105222;28;20085;-75
2021/01/04 14:44:36;;;;;;;67.00;28.88;;;;;;;;;;8098708;28;20047;-73
2021/01/04 14:48:40;;;;;;;106.13;36.50;;;;;;;;;;8106353;28;20073;-75
2021/01/04 14:52:43;;;;;;;216.93;101.43;;;;;;;;;;8131619;28;20405;-73
2021/01/04 14:56:46;;;;;;;108.07;43.25;;;;;;;;;;8130030;28;20420;-75
2021/01/04 15:00:49;;;;;;;65.63;34.85;;;;;;;;;;8130913;28;20505;-72
2021/01/04 15:04:53;;;;;;;58.15;30.30;;;;;;;;;;8131651;28;20113;-74
2021/01/04 15:08:56;;;;;;;48.92;24.70;;;;;;;;;;8131368;28;20062;-74
2021/01/04 15:13:00;;;;;;;51.42;25.08;;;;;;;;;;8130733;28;20055;-72
2021/01/04 15:17:03;;;;;;;49.17;26.15;;;;;;;;;;8114609;28;20404;-73
2021/01/04 15:21:06;;;;;;;50.42;24.75;;;;;;;;;;8143375;28;20503;-74
2021/01/04 15:25:11;;;;;;;61.33;30.10;;;;;;;;;;8142788;28;20595;-73
2021/01/04 15:29:20;;;;;;;92.00;42.78;;;;;;;;;;8128423;28;20380;-73
2021/01/04 15:33:24;;;;;;;77.93;37.72;;;;;;;;;;8141659;28;20542;-76
2021/01/04 15:37:27;;;;;;;55.75;29.35;;;;;;;;;;8145194;28;20520;-75
2021/01/04 15:41:33;;;;;;;86.18;44.00;;;;;;;;;;8144367;28;20457;-73
2021/01/04 15:45:36;;;;;;;83.72;42.70;;;;;;;;;;8145467;28;20051;-73
2021/01/04 15:49:39;;;;;;;69.82;33.22;;;;;;;;;;8144090;28;20470;-74
2021/01/04 15:53:47;;;;;;;60.17;30.45;;;;;;;;;;8143930;28;20400;-74
2021/01/04 15:57:51;;;;;;;63.05;29.67;;;;;;;;;;8142458;28;20542;-73
2021/01/04 16:01:55;;;;;;;63.50;32.53;;;;;;;;;;8141728;28;20385;-72
2021/01/04 16:05:58;;;;;;;64.28;32.22;;;;;;;;;;8143086;28;20050;-74
2021/01/04 16:10:01;;;;;;;51.17;25.48;;;;;;;;;;8140617;28;20054;-76
2021/01/04 16:14:21;;;;;;;58.83;26.83;;;;;;;;;;8144363;28;20100;-75
2021/01/04 16:18:27;;;;;;;57.55;30.55;;;;;;;;;;7966404;28;5000306;-73
2021/01/04 16:22:31;;;;;;;62.55;27.92;;;;;;;;;;8142169;28;20530;-73
2021/01/04 16:26:35;;;;;;;75.07;32.00;;;;;;;;;;8124308;28;20058;-74
2021/01/04 16:30:41;;;;;;;68.22;32.03;;;;;;;;;;8135784;28;20646;-75
2021/01/04 16:34:48;;;;;;;61.15;29.92;;;;;;;;;;8040183;28;20385;-72
2021/01/04 16:38:56;;;;;;;120.22;57.42;;;;;;;;;;8107358;28;20046;-73
2021/01/04 16:42:59;;;;;;;166.23;80.50;;;;;;;;;;8088827;28;20488;-72
2021/01/04 16:47:05;;;;;;;138.05;63.42;;;;;;;;;;8134650;28;20534;-72
2021/01/04 16:51:09;;;;;;;137.80;67.85;;;;;;;;;;8111522;28;20625;-72
2021/01/04 16:55:21;;;;;;;84.65;42.55;;;;;;;;;;8157656;28;20448;-75
2021/01/04 16:59:24;;;;;;;147.10;65.05;;;;;;;;;;8161226;28;20727;-75
2021/01/04 17:03:30;;;;;;;119.70;50.95;;;;;;;;;;8160875;28;20541;-73
2021/01/04 17:07:36;;;;;;;173.32;74.15;;;;;;;;;;8161279;28;20473;-74
2021/01/04 17:11:44;;;;;;;108.70;45.58;;;;;;;;;;8159319;28;20120;-74
2021/01/04 17:15:47;;;;;;;109.40;45.67;;;;;;;;;;8159246;28;20496;-73
2021/01/04 17:19:52;;;;;;;69.22;32.22;;;;;;;;;;8148607;28;20365;-73
2021/01/04 17:23:58;;;;;;;63.17;29.73;;;;;;;;;;8166155;28;20050;-73
2021/01/04 17:28:04;;;;;;;45.95;20.52;;;;;;;;;;8139255;28;20485;-73
2021/01/04 17:32:07;;;;;;;55.40;24.33;;;;;;;;;;8121868;28;20416;-75
2021/01/04 17:36:11;;;;;;;50.55;23.60;;;;;;;;;;8141230;28;20350;-75
2021/01/04 17:40:16;;;;;;;67.18;29.70;;;;;;;;;;8139420;28;20058;-74
2021/01/04 17:44:19;;;;;;;52.22;21.25;;;;;;;;;;8137906;28;20058;-75
2021/01/04 17:48:25;;;;;;;49.60;21.05;;;;;;;;;;8138555;28;20046;-74
2021/01/04 17:52:29;;;;;;;48.50;24.50;;;;;;;;;;8138337;28;20047;-74
2021/01/04 17:56:36;;;;;;;51.72;26.52;;;;;;;;;;8048933;28;20381;-74
2021/01/04 18:00:40;;;;;;;41.38;20.33;;;;;;;;;;8105363;28;20077;-74
2021/01/04 18:04:43;;;;;;;66.40;36.88;;;;;;;;;;8097241;28;20081;-74
2021/01/04 18:08:46;;;;;;;59.17;26.58;;;;;;;;;;8102935;28;20378;-75
2021/01/04 18:12:50;;;;;;;88.25;41.30;;;;;;;;;;8138098;28;20065;-75
2021/01/04 18:16:55;;;;;;;73.40;38.05;;;;;;;;;;8114676;28;20404;-75
2021/01/04 18:20:59;;;;;;;76.57;36.65;;;;;;;;;;8138832;28;20622;-75
2021/01/04 18:25:09;;;;;;;80.75;41.30;;;;;;;;;;8139132;28;20051;-75
2021/01/04 18:29:13;;;;;;;56.05;28.20;;;;;;;;;;8106114;28;20488;-74
2021/01/04 18:33:16;;;;;;;62.38;30.35;;;;;;;;;;8150675;28;20114;-75
2021/01/04 18:37:20;;;;;;;87.85;42.50;;;;;;;;;;8137507;28;20417;-75
2021/01/04 18:41:27;;;;;;;57.15;28.77;;;;;;;;;;8107282;28;20429;-74
2021/01/04 18:45:30;;;;;;;50.10;24.67;;;;;;;;;;8139120;28;20387;-75
2021/01/04 18:49:33;;;;;;;66.25;21.15;;;;;;;;;;8137888;28;20262;-73
2021/01/04 18:53:38;;;;;;;56.38;27.88;;;;;;;;;;8138132;28;20576;-73
2021/01/04 18:57:42;;;;;;;51.10;23.50;;;;;;;;;;8136177;28;20062;-73
2021/01/04 19:01:58;;;;;;;84.28;27.80;;;;;;;;;;8136905;28;20378;-73
2021/01/04 19:06:01;;;;;;;77.10;27.38;;;;;;;;;;8138730;28;20350;-74
2021/01/04 19:10:08;;;;;;;71.63;23.65;;;;;;;;;;8137573;28;20377;-74
2021/01/04 19:14:17;;;;;;;52.13;23.50;;;;;;;;;;8117220;28;20611;-75
2021/01/04 19:18:20;;;;;;;59.72;25.65;;;;;;;;;;8101243;28;20416;-73
2021/01/04 19:22:24;;;;;;;56.90;23.98;;;;;;;;;;8100421;28;20562;-74
2021/01/04 19:26:30;;;;;;;65.47;26.65;;;;;;;;;;8087030;28;20354;-74
2021/01/04 19:30:34;;;;;;;111.55;47.78;;;;;;;;;;8054932;28;20355;-74
2021/01/04 19:34:37;;;;;;;70.50;29.17;;;;;;;;;;8099175;28;20482;-74
2021/01/04 19:38:41;;;;;;;56.10;23.10;;;;;;;;;;8100890;28;20114;-72
2021/01/04 19:42:46;;;;;;;54.58;24.92;;;;;;;;;;8100491;28;20678;-75
2021/01/04 19:46:53;;;;;;;62.92;31.45;;;;;;;;;;8099557;28;20454;-73
2021/01/04 19:50:57;;;;;;;64.90;27.58;;;;;;;;;;8085906;28;20414;-74
2021/01/04 19:55:01;;;;;;;68.43;27.63;;;;;;;;;;8086752;28;20524;-74
2021/01/04 19:59:05;;;;;;;131.68;37.22;;;;;;;;;;8105799;28;20481;-73
2021/01/04 20:03:09;;;;;;;83.70;30.98;;;;;;;;;;8086716;28;20547;-73
2021/01/04 20:07:12;;;;;;;104.72;45.90;;;;;;;;;;8102952;28;20059;-72
2021/01/04 20:11:16;;;;;;;66.75;29.23;;;;;;;;;;8086473;28;20527;-74
2021/01/04 20:15:19;;;;;;;86.03;34.63;;;;;;;;;;8117848;28;20469;-73
2021/01/04 20:19:26;;;;;;;86.47;38.65;;;;;;;;;;8104228;28;20508;-74
2021/01/04 20:23:29;;;;;;;85.07;34.47;;;;;;;;;;8086897;28;20489;-74
2021/01/04 20:27:32;;;;;;;91.05;44.75;;;;;;;;;;8107439;28;20480;-73
2021/01/04 20:31:41;;;;;;;70.13;31.30;;;;;;;;;;8109243;28;20382;-74
2021/01/04 20:35:48;;;;;;;58.67;24.60;;;;;;;;;;8127058;28;20581;-74
2021/01/04 20:45:16;;;;;;;65.68;29.58;;;;;;;;;;8137279;28;20433;-73
2021/01/04 20:49:19;;;;;;;63.30;27.27;;;;;;;;;;8135022;28;20047;-74
2021/01/04 20:53:22;;;;;;;64.20;26.95;;;;;;;;;;8136729;28;20497;-73
2021/01/04 20:57:26;;;;;;;78.57;34.22;;;;;;;;;;8100049;28;20701;-74
2021/01/04 21:01:29;;;;;;;73.88;30.17;;;;;;;;;;8135617;28;20386;-73
2021/01/04 21:05:34;;;;;;;63.13;28.20;;;;;;;;;;8133829;28;20453;-74
2021/01/04 21:09:41;;;;;;;67.80;28.38;;;;;;;;;;8134416;28;20320;-74
2021/01/04 21:13:44;;;;;;;54.40;23.58;;;;;;;;;;8135552;28;20355;-73
2021/01/04 21:17:47;;;;;;;50.13;22.17;;;;;;;;;;8134496;28;20478;-74
2021/01/04 21:21:51;;;;;;;56.10;23.75;;;;;;;;;;8136288;28;20542;-74
2021/01/04 21:25:56;;;;;;;59.72;24.45;;;;;;;;;;8135128;28;20540;-74
2021/01/04 21:30:01;;;;;;;78.30;24.67;;;;;;;;;;8103834;28;20510;-74
2021/01/04 21:34:07;;;;;;;58.33;23.67;;;;;;;;;;8133102;28;20701;-74
2021/01/04 21:38:10;;;;;;;77.82;24.67;;;;;;;;;;8133045;28;20376;-73
2021/01/04 21:42:13;;;;;;;71.57;24.85;;;;;;;;;;8135165;28;20068;-73
2021/01/04 21:46:30;;;;;;;65.40;23.60;;;;;;;;;;6484681;28;10023694;-73
2021/01/04 21:50:32;;;;;;;68.28;25.42;;;;;;;;;;7116440;28;10003218;-74
2021/01/04 21:54:36;;;;;;;68.60;25.88;;;;;;;;;;8134645;28;20450;-73
2021/01/04 21:58:39;;;;;;;65.97;22.35;;;;;;;;;;8134643;28;20377;-74
2021/01/04 22:02:43;;;;;;;75.45;23.35;;;;;;;;;;8132024;28;20042;-73
2021/01/04 22:06:46;;;;;;;77.68;24.17;;;;;;;;;;8136889;28;20557;-73
2021/01/04 22:10:50;;;;;;;59.55;20.63;;;;;;;;;;8121530;28;20077;-74
2021/01/04 22:14:53;;;;;;;75.93;21.15;;;;;;;;;;8138668;28;20638;-74
2021/01/04 22:18:56;;;;;;;58.88;20.73;;;;;;;;;;8140402;28;20367;-74
2021/01/04 22:22:59;;;;;;;62.13;20.52;;;;;;;;;;8137977;28;20559;-74
2021/01/04 22:27:05;;;;;;;50.83;19.05;;;;;;;;;;8138953;28;20082;-74
2021/01/04 22:31:25;;;;;;;49.20;18.55;;;;;;;;;;8140025;28;20461;-74
2021/01/04 22:35:28;;;;;;;51.10;19.02;;;;;;;;;;8137842;28;20542;-74
2021/01/04 22:39:31;;;;;;;55.72;17.40;;;;;;;;;;8140048;28;20046;-73
2021/01/04 22:43:37;;;;;;;48.97;17.08;;;;;;;;;;8138996;28;20355;-74
2021/01/04 22:47:40;;;;;;;51.08;16.77;;;;;;;;;;8139122;28;20062;-74
2021/01/04 22:51:54;;;;;;;49.75;17.70;;;;;;;;;;8139151;28;20615;-74
2021/01/04 22:55:58;;;;;;;51.55;18.20;;;;;;;;;;8137654;28;20521;-75
2021/01/04 23:00:01;;;;;;;56.10;19.42;;;;;;;;;;8139801;28;20081;-74
2021/01/04 23:04:05;;;;;;;38.92;16.38;;;;;;;;;;8111232;28;20543;-74
2021/01/04 23:08:08;;;;;;;48.78;18.20;;;;;;;;;;8106173;28;20478;-75
2021/01/04 23:12:12;;;;;;;50.60;18.60;;;;;;;;;;8107216;28;20466;-74
2021/01/04 23:16:15;;;;;;;46.35;17.45;;;;;;;;;;8105162;28;20051;-74
2021/01/04 23:20:20;;;;;;;67.75;19.73;;;;;;;;;;8068938;29;20577;-74
2021/01/04 23:24:25;;;;;;;46.63;17.23;;;;;;;;;;8069874;29;20528;-75
2021/01/04 23:28:27;;;;;;;60.05;16.85;;;;;;;;;;8053242;29;20640;-74
2021/01/04 23:32:30;;;;;;;51.75;15.88;;;;;;;;;;8068262;29;20691;-74
2021/01/04 23:36:34;;;;;;;60.28;17.58;;;;;;;;;;8068356;29;20055;-75
2021/01/04 23:40:37;;;;;;;59.95;17.08;;;;;;;;;;8069537;29;20047;-75
2021/01/04 23:44:40;;;;;;;54.97;17.00;;;;;;;;;;8068156;29;20531;-74
2021/01/04 23:48:44;;;;;;;72.93;17.70;;;;;;;;;;8053812;28;20565;-75
2021/01/04 23:52:47;;;;;;;55.53;15.25;;;;;;;;;;8104094;28;20505;-75
2021/01/04 23:56:52;;;;;;;69.63;17.13;;;;;;;;;;8102989;28;20386;-75
